createdAt,value
2023-05-06T00:00:33.958Z,101520.62
2023-05-06T00:03:01.810Z,101518.29
2023-05-06T00:05:28.828Z,101516.20
2023-05-06T00:07:56.125Z,101515.40
2023-05-06T00:10:23.213Z,101511.41
2023-05-06T00:12:50.452Z,101512.25
2023-05-06T00:15:17.390Z,101509.31
2023-05-06T00:17:44.282Z,101509.46
2023-05-06T00:20:11.769Z,101502.45
2023-05-06T00:22:39.338Z,101498.20
2023-05-06T00:25:06.961Z,101498.89
2023-05-06T00:27:34.248Z,101499.36
2023-05-06T00:30:01.202Z,101498.02
2023-05-06T00:32:28.175Z,101493.61
2023-05-06T00:34:55.401Z,101493.61
2023-05-06T00:37:22.401Z,101491.41
2023-05-06T00:39:49.385Z,101487.91
2023-05-06T00:42:16.736Z,101484.48
2023-05-06T00:44:43.678Z,101485.53
2023-05-06T00:47:10.968Z,101483.94
2023-05-06T00:49:38.193Z,101484.05
2023-05-06T00:52:05.542Z,101487.17
2023-05-06T00:54:33.001Z,101482.66
2023-05-06T00:57:00.203Z,101480.58
2023-05-06T00:59:27.502Z,101480.36
2023-05-06T01:01:54.784Z,101475.86
2023-05-06T01:04:24.247Z,101475.33
2023-05-06T01:07:13.792Z,101471.89
2023-05-06T01:09:52.249Z,101473.11
2023-05-06T01:12:29.227Z,101472.30
2023-05-06T01:15:00.289Z,101469.95
2023-05-06T01:17:30.882Z,101469.79
2023-05-06T01:20:01.693Z,101469.05
2023-05-06T01:22:31.538Z,101471.22
2023-05-06T01:24:58.417Z,101469.05
2023-05-06T01:27:25.439Z,101471.06
2023-05-06T01:29:52.833Z,101470.16
2023-05-06T01:32:19.997Z,101471.71
2023-05-06T01:34:53.853Z,101469.45
2023-05-06T01:37:41.194Z,101469.89
2023-05-06T01:40:09.766Z,101469.67
2023-05-06T01:42:38.649Z,101463.25
2023-05-06T01:45:08.803Z,101462.53
2023-05-06T01:47:38.045Z,101461.52
2023-05-06T01:50:06.755Z,101457.42
2023-05-06T01:52:33.724Z,101453.49
2023-05-06T01:55:00.972Z,101453.13
2023-05-06T01:57:28.995Z,101450.42
2023-05-06T01:59:56.409Z,101449.67
2023-05-06T02:02:24.482Z,101445.00
2023-05-06T02:04:53.457Z,101442.88
2023-05-06T02:07:20.544Z,101440.23
2023-05-06T02:09:47.434Z,101443.66
2023-05-06T02:12:14.572Z,101443.73
2023-05-06T02:14:41.642Z,101438.37
2023-05-06T02:17:08.702Z,101437.40
2023-05-06T02:19:36.062Z,101435.17
2023-05-06T02:22:04.116Z,101437.33
2023-05-06T02:24:31.673Z,101439.02
2023-05-06T02:26:58.711Z,101437.46
2023-05-06T02:29:25.624Z,101435.59
2023-05-06T02:31:52.700Z,101430.93
2023-05-06T02:34:19.859Z,101426.57
2023-05-06T02:36:46.800Z,101423.29
2023-05-06T02:39:13.848Z,101422.06
2023-05-06T02:41:40.739Z,101419.18
2023-05-06T02:44:07.890Z,101420.56
2023-05-06T02:46:35.045Z,101418.65
2023-05-06T02:49:02.322Z,101420.31
2023-05-06T02:51:30.002Z,101417.33
2023-05-06T02:53:57.358Z,101416.05
2023-05-06T02:56:24.376Z,101415.63
2023-05-06T02:58:51.663Z,101411.97
2023-05-06T03:01:18.670Z,101415.27
2023-05-06T03:03:45.943Z,101412.54
2023-05-06T03:06:13.009Z,101407.02
2023-05-06T03:08:41.708Z,101410.42
2023-05-06T03:11:08.646Z,101406.65
2023-05-06T03:13:35.953Z,101407.71
2023-05-06T03:16:03.032Z,101406.14
2023-05-06T03:18:30.537Z,101409.05
2023-05-06T03:20:57.611Z,101410.96
2023-05-06T03:23:25.612Z,101410.73
2023-05-06T03:25:53.169Z,101412.16
2023-05-06T03:28:20.894Z,101412.22
2023-05-06T03:30:48.448Z,101414.55
2023-05-06T03:33:16.059Z,101416.52
2023-05-06T03:35:43.306Z,101415.98
2023-05-06T03:38:10.346Z,101416.95
2023-05-06T03:40:43.450Z,101419.86
2023-05-06T03:43:10.573Z,101418.25
2023-05-06T03:45:38.315Z,101416.09
2023-05-06T03:48:05.912Z,101416.31
2023-05-06T03:50:33.733Z,101416.11
2023-05-06T03:53:00.792Z,101416.95
2023-05-06T03:55:28.552Z,101418.88
2023-05-06T03:57:56.861Z,101420.85
2023-05-06T04:00:23.786Z,101423.66
2023-05-06T04:02:51.598Z,101423.13
2023-05-06T04:05:23.316Z,101423.20
2023-05-06T04:07:50.256Z,101422.84
2023-05-06T04:10:17.357Z,101423.95
2023-05-06T04:12:47.483Z,101423.11
2023-05-06T04:15:16.211Z,101426.02
2023-05-06T04:17:43.588Z,101429.61
2023-05-06T04:20:11.651Z,101428.44
2023-05-06T04:22:39.340Z,101431.51
2023-05-06T04:25:07.552Z,101430.50
2023-05-06T04:27:36.084Z,101431.03
2023-05-06T04:30:04.857Z,101435.34
2023-05-06T04:32:34.446Z,101439.75
2023-05-06T04:35:02.799Z,101440.54
2023-05-06T04:37:31.017Z,101446.29
2023-05-06T04:40:13.047Z,101447.88
2023-05-06T04:42:41.009Z,101451.70
2023-05-06T04:45:12.348Z,101457.66
2023-05-06T04:47:40.593Z,101462.05
2023-05-06T04:50:09.079Z,101463.27
2023-05-06T04:52:36.379Z,101466.42
2023-05-06T04:55:04.180Z,101468.55
2023-05-06T04:57:32.214Z,101470.36
2023-05-06T04:59:59.308Z,101472.80
2023-05-06T05:02:26.975Z,101471.63
2023-05-06T05:04:54.109Z,101474.98
2023-05-06T05:07:22.428Z,101473.23
2023-05-06T05:09:49.357Z,101472.41
2023-05-06T05:12:16.552Z,101477.48
2023-05-06T05:14:47.461Z,101476.19
2023-05-06T05:17:15.055Z,101476.30
2023-05-06T05:19:42.260Z,101477.90
2023-05-06T05:22:09.328Z,101474.40
2023-05-06T05:24:36.214Z,101473.05
2023-05-06T05:27:03.845Z,101475.98
2023-05-06T05:29:31.021Z,101474.23
2023-05-06T05:31:58.524Z,101475.88
2023-05-06T05:34:25.521Z,101476.52
2023-05-06T05:36:53.084Z,101476.94
2023-05-06T05:39:21.245Z,101476.89
2023-05-06T05:41:48.330Z,101482.01
2023-05-06T05:44:15.903Z,101486.98
2023-05-06T05:46:43.316Z,101487.84
2023-05-06T05:49:12.372Z,101484.77
2023-05-06T05:51:39.323Z,101483.22
2023-05-06T05:54:06.409Z,101482.47
2023-05-06T05:56:34.232Z,101483.64
2023-05-06T05:59:01.674Z,101484.96
2023-05-06T06:01:28.654Z,101482.20
2023-05-06T06:03:56.742Z,101487.69
2023-05-06T06:06:24.593Z,101487.58
2023-05-06T06:08:52.301Z,101491.99
2023-05-06T06:11:20.293Z,101494.21
2023-05-06T06:13:47.196Z,101497.13
2023-05-06T06:16:14.525Z,101499.27
2023-05-06T06:18:41.465Z,101502.14
2023-05-06T06:21:08.393Z,101503.84
2023-05-06T06:23:36.080Z,101507.62
2023-05-06T06:26:05.636Z,101506.88
2023-05-06T06:28:33.492Z,101508.77
2023-05-06T06:31:00.677Z,101511.33
2023-05-06T06:33:27.824Z,101511.65
2023-05-06T06:35:54.992Z,101512.81
2023-05-06T06:38:21.910Z,101515.52
2023-05-06T06:40:48.799Z,101515.21
2023-05-06T06:43:15.709Z,101519.88
2023-05-06T06:45:50.016Z,101519.35
2023-05-06T06:48:17.292Z,101518.23
2023-05-06T06:50:44.275Z,101517.82
2023-05-06T06:53:11.240Z,101523.02
2023-05-06T06:55:38.184Z,101524.08
2023-05-06T06:58:05.068Z,101523.23
2023-05-06T07:00:31.891Z,101524.35
2023-05-06T07:02:59.057Z,101527.23
2023-05-06T07:05:27.204Z,101526.05
2023-05-06T07:07:54.615Z,101525.25
2023-05-06T07:10:22.289Z,101524.35
2023-05-06T07:12:49.162Z,101524.84
2023-05-06T07:15:16.167Z,101521.80
2023-05-06T07:17:43.169Z,101519.52
2023-05-06T07:20:11.078Z,101514.00
2023-05-06T07:22:37.982Z,101508.21
2023-05-06T07:25:05.203Z,101510.59
2023-05-06T07:27:32.078Z,101515.95
2023-05-06T07:29:59.000Z,101522.86
2023-05-06T07:32:26.026Z,101523.14
2023-05-06T07:34:53.027Z,101526.38
2023-05-06T07:37:19.973Z,101524.58
2023-05-06T07:39:47.065Z,101520.42
2023-05-06T07:42:14.005Z,101519.19
2023-05-06T07:44:40.878Z,101521.59
2023-05-06T07:47:07.940Z,101521.80
2023-05-06T07:49:35.670Z,101522.38
2023-05-06T07:52:03.712Z,101526.21
2023-05-06T07:54:31.985Z,101531.68
2023-05-06T07:56:59.187Z,101536.62
2023-05-06T07:59:26.077Z,101539.85
2023-05-06T08:01:52.900Z,101541.18
2023-05-06T08:04:19.880Z,101539.05
2023-05-06T08:06:46.909Z,101534.00
2023-05-06T08:09:22.321Z,101530.83
2023-05-06T08:11:50.876Z,101530.88
2023-05-06T08:14:17.832Z,101532.80
2023-05-06T08:16:44.857Z,101529.40
2023-05-06T08:19:11.812Z,101528.45
2023-05-06T08:21:38.664Z,101528.81
2023-05-06T08:24:05.725Z,101532.80
2023-05-06T08:26:32.569Z,101536.94
2023-05-06T08:28:59.765Z,101536.84
2023-05-06T08:31:26.897Z,101538.48
2023-05-06T08:33:54.848Z,101539.60
2023-05-06T08:36:22.558Z,101537.95
2023-05-06T08:38:51.104Z,101539.83
2023-05-06T08:41:20.100Z,101539.56
2023-05-06T08:43:48.759Z,101538.49
2023-05-06T08:46:16.817Z,101540.89
2023-05-06T08:48:43.887Z,101545.03
2023-05-06T08:51:14.321Z,101542.80
2023-05-06T08:53:47.075Z,101547.37
2023-05-06T08:56:15.241Z,101550.61
2023-05-06T08:58:45.701Z,101546.05
2023-05-06T09:01:14.175Z,101543.81
2023-05-06T09:03:41.458Z,101539.77
2023-05-06T09:06:08.582Z,101537.06
2023-05-06T09:08:36.320Z,101532.66
2023-05-06T09:11:03.287Z,101533.45
2023-05-06T09:13:30.402Z,101529.15
2023-05-06T09:15:57.316Z,101522.19
2023-05-06T09:18:24.212Z,101524.04
2023-05-06T09:20:51.401Z,101518.63
2023-05-06T09:23:18.846Z,101519.20
2023-05-06T09:25:47.723Z,101524.37
2023-05-06T09:28:15.439Z,101529.36
2023-05-06T09:30:44.018Z,101525.84
2023-05-06T09:33:12.251Z,101529.50
2023-05-06T09:35:42.167Z,101530.40
2023-05-06T09:38:09.798Z,101533.96
2023-05-06T09:40:38.194Z,101534.27
2023-05-06T09:43:06.007Z,101530.55
2023-05-06T09:45:33.302Z,101536.34
2023-05-06T09:48:01.103Z,101533.00
2023-05-06T09:50:28.923Z,101531.02
2023-05-06T09:52:56.697Z,101527.00
2023-05-06T09:55:26.999Z,101530.51
2023-05-06T09:57:55.550Z,101526.14
2023-05-06T10:00:28.347Z,101526.52
2023-05-06T10:02:57.016Z,101521.79
2023-05-06T10:05:28.296Z,101518.38
2023-05-06T10:07:57.472Z,101520.83
2023-05-06T10:10:25.582Z,101510.62
2023-05-06T10:12:53.043Z,101506.89
2023-05-06T10:15:22.931Z,101508.92
2023-05-06T10:17:54.169Z,101505.02
2023-05-06T10:20:24.209Z,101503.86
2023-05-06T10:23:08.591Z,101503.70
2023-05-06T10:25:40.816Z,101501.53
2023-05-06T10:28:13.198Z,101506.00
2023-05-06T10:30:47.678Z,101505.14
2023-05-06T10:33:16.237Z,101500.27
2023-05-06T10:35:55.189Z,101502.55
2023-05-06T10:38:30.457Z,101507.01
2023-05-06T10:40:57.813Z,101497.09
2023-05-06T10:43:31.157Z,101490.05
2023-05-06T10:46:02.313Z,101505.47
2023-05-06T10:48:31.032Z,101509.83
2023-05-06T10:51:16.577Z,101507.74
2023-05-06T10:53:58.378Z,101512.38
2023-05-06T10:56:26.953Z,101511.95
2023-05-06T10:58:55.903Z,101518.33
2023-05-06T11:01:32.218Z,101518.05
2023-05-06T11:04:05.341Z,101518.52
2023-05-06T11:06:54.052Z,101515.66
2023-05-06T11:10:05.444Z,101521.02
2023-05-06T11:12:50.149Z,101524.20
2023-05-06T11:15:24.529Z,101526.80
2023-05-06T11:17:54.059Z,101528.00
2023-05-06T11:20:27.347Z,101524.80
2023-05-06T11:23:08.091Z,101524.17
2023-05-06T11:25:43.108Z,101522.41
2023-05-06T11:28:16.722Z,101522.58
2023-05-06T11:30:56.543Z,101524.05
2023-05-06T11:33:37.964Z,101519.91
2023-05-06T11:36:06.715Z,101526.39
2023-05-06T11:38:46.433Z,101532.97
2023-05-06T11:41:14.355Z,101533.98
2023-05-06T11:43:47.040Z,101532.74
2023-05-06T11:46:14.332Z,101530.05
2023-05-06T11:48:41.436Z,101528.52
2023-05-06T11:51:08.602Z,101528.79
2023-05-06T11:53:35.848Z,101526.59
2023-05-06T11:56:03.505Z,101526.96
2023-05-06T11:58:30.752Z,101516.39
2023-05-06T12:00:59.867Z,101513.16
2023-05-06T12:03:29.065Z,101510.13
2023-05-06T12:05:56.716Z,101509.64
2023-05-06T12:08:32.149Z,101509.48
2023-05-06T12:11:05.422Z,101509.05
2023-05-06T12:13:35.057Z,101506.09
2023-05-06T12:16:05.406Z,101498.61
2023-05-06T12:18:34.783Z,101493.62
2023-05-06T12:21:03.088Z,101493.56
2023-05-06T12:23:30.246Z,101491.80
2023-05-06T12:26:16.918Z,101490.53
2023-05-06T12:28:43.966Z,101486.13
2023-05-06T12:31:24.517Z,101490.64
2023-05-06T12:33:51.986Z,101487.14
2023-05-06T12:36:19.712Z,101488.35
2023-05-06T12:38:55.297Z,101488.62
2023-05-06T12:41:23.674Z,101487.02
2023-05-06T12:43:52.462Z,101483.47
2023-05-06T12:46:19.728Z,101479.02
2023-05-06T12:49:16.669Z,101478.59
2023-05-06T12:51:45.736Z,101474.09
2023-05-06T12:54:31.141Z,101468.52
2023-05-06T12:56:58.081Z,101472.28
2023-05-06T12:59:28.920Z,101474.77
2023-05-06T13:01:56.168Z,101470.04
2023-05-06T13:04:23.423Z,101470.13
2023-05-06T13:06:51.708Z,101467.52
2023-05-06T13:09:19.150Z,101464.23
2023-05-06T13:11:46.327Z,101460.67
2023-05-06T13:14:13.864Z,101456.15
2023-05-06T13:16:42.366Z,101452.85
2023-05-06T13:19:21.134Z,101446.96
2023-05-06T13:21:59.065Z,101446.84
2023-05-06T13:24:26.029Z,101449.61
2023-05-06T13:26:53.076Z,101449.61
2023-05-06T13:29:20.136Z,101445.73
2023-05-06T13:31:47.296Z,101449.16
2023-05-06T13:34:14.202Z,101443.06
2023-05-06T13:36:42.479Z,101443.45
2023-05-06T13:39:12.589Z,101442.92
2023-05-06T13:41:39.641Z,101431.83
2023-05-06T13:44:06.650Z,101435.00
2023-05-06T13:46:33.727Z,101430.55
2023-05-06T13:49:00.995Z,101431.04
2023-05-06T13:51:30.924Z,101429.02
2023-05-06T13:53:58.072Z,101425.73
2023-05-06T13:56:25.090Z,101429.45
2023-05-06T13:58:53.502Z,101428.96
2023-05-06T14:01:24.762Z,101436.55
2023-05-06T14:03:52.801Z,101436.13
2023-05-06T14:06:20.268Z,101436.75
2023-05-06T14:08:47.612Z,101436.54
2023-05-06T14:11:14.770Z,101436.23
2023-05-06T14:13:41.666Z,101435.10
2023-05-06T14:16:08.626Z,101428.05
2023-05-06T14:18:35.916Z,101430.30
2023-05-06T14:21:03.772Z,101425.09
2023-05-06T14:23:30.918Z,101425.63
2023-05-06T14:25:57.874Z,101426.58
2023-05-06T14:28:24.811Z,101427.91
2023-05-06T14:30:51.926Z,101422.02
2023-05-06T14:33:19.213Z,101419.80
2023-05-06T14:35:51.243Z,101422.33
2023-05-06T14:38:18.837Z,101423.02
2023-05-06T14:40:45.888Z,101418.52
2023-05-06T14:43:12.826Z,101425.98
2023-05-06T14:45:40.356Z,101428.85
2023-05-06T14:48:07.991Z,101428.21
2023-05-06T14:50:35.104Z,101429.98
2023-05-06T14:53:03.746Z,101428.93
2023-05-06T14:55:31.177Z,101428.13
2023-05-06T14:57:58.089Z,101429.14
2023-05-06T15:00:25.471Z,101431.70
2023-05-06T15:02:52.317Z,101431.27
2023-05-06T15:05:19.394Z,101436.91
2023-05-06T15:07:46.599Z,101441.26
2023-05-06T15:10:13.850Z,101441.79
2023-05-06T15:12:41.017Z,101435.04
2023-05-06T15:15:08.804Z,101433.92
2023-05-06T15:17:36.118Z,101428.93
2023-05-06T15:20:04.578Z,101426.87
2023-05-06T15:22:31.482Z,101426.22
2023-05-06T15:24:59.170Z,101430.55
2023-05-06T15:27:26.139Z,101428.76
2023-05-06T15:29:53.219Z,101427.15
2023-05-06T15:32:20.282Z,101424.99
2023-05-06T15:34:47.179Z,101424.15
2023-05-06T15:37:16.000Z,101421.08
2023-05-06T15:39:43.747Z,101420.59
2023-05-06T15:42:11.095Z,101425.38
2023-05-06T15:44:38.088Z,101430.11
2023-05-06T15:47:05.214Z,101434.25
2023-05-06T15:52:01.978Z,101426.83
2023-05-06T15:54:29.032Z,101426.41
2023-05-06T15:56:56.582Z,101425.02
2023-05-06T15:59:23.997Z,101421.95
2023-05-06T16:02:25.593Z,101419.38
2023-05-06T16:04:38.118Z,101418.33
2023-05-06T16:07:05.184Z,101419.01
2023-05-06T16:09:32.063Z,101413.97
2023-05-06T16:11:59.079Z,101408.80
2023-05-06T16:14:26.060Z,101405.25
2023-05-06T16:16:52.938Z,101407.48
2023-05-06T16:19:19.937Z,101401.46
2023-05-06T16:21:46.910Z,101402.51
2023-05-06T16:24:14.026Z,101404.86
2023-05-06T16:26:42.399Z,101404.59
2023-05-06T16:29:10.845Z,101406.46
2023-05-06T16:31:38.339Z,101402.10
2023-05-06T16:34:05.487Z,101401.98
2023-05-06T16:36:32.346Z,101403.91
2023-05-06T16:38:59.236Z,101406.04
2023-05-06T16:41:26.164Z,101405.43
2023-05-06T16:43:54.476Z,101402.66
2023-05-06T16:46:23.971Z,101405.16
2023-05-06T16:48:52.322Z,101409.25
2023-05-06T16:51:19.306Z,101402.07
2023-05-06T16:53:46.394Z,101402.17
2023-05-06T16:56:13.631Z,101403.94
2023-05-06T16:58:42.778Z,101403.27
2023-05-06T17:01:09.998Z,101398.52
2023-05-06T17:03:38.024Z,101398.23
2023-05-06T17:06:05.455Z,101393.75
2023-05-06T17:08:36.053Z,101391.78
2023-05-06T17:11:06.984Z,101388.16
2023-05-06T17:13:34.781Z,101390.44
2023-05-06T17:16:01.802Z,101388.36
2023-05-06T17:18:28.858Z,101387.94
2023-05-06T17:20:57.129Z,101390.81
2023-05-06T17:23:24.877Z,101390.18
2023-05-06T17:25:52.027Z,101389.91
2023-05-06T17:28:19.206Z,101395.22
2023-05-06T17:30:46.770Z,101401.87
2023-05-06T17:33:13.790Z,101409.16
2023-05-06T17:35:40.840Z,101411.11
2023-05-06T17:38:08.079Z,101408.77
2023-05-06T17:40:35.125Z,101407.59
2023-05-06T17:43:02.166Z,101410.77
2023-05-06T17:45:29.232Z,101411.14
2023-05-06T17:47:56.728Z,101415.64
2023-05-06T17:50:23.866Z,101413.04
2023-05-06T17:52:52.968Z,101413.45
2023-05-06T17:55:22.031Z,101410.81
2023-05-06T17:57:49.549Z,101409.23
2023-05-06T18:00:17.128Z,101413.95
2023-05-06T18:02:44.871Z,101416.70
2023-05-06T18:05:12.383Z,101414.17
2023-05-06T18:07:39.730Z,101411.47
2023-05-06T18:10:08.111Z,101416.30
2023-05-06T18:12:35.164Z,101412.52
2023-05-06T18:15:02.500Z,101415.29
2023-05-06T18:17:29.468Z,101417.19
2023-05-06T18:19:57.103Z,101415.80
2023-05-06T18:22:24.116Z,101412.51
2023-05-06T18:24:55.377Z,101412.61
2023-05-06T18:27:23.197Z,101411.76
2023-05-06T18:29:50.176Z,101420.73
2023-05-06T18:32:17.993Z,101424.55
2023-05-06T18:34:44.874Z,101425.41
2023-05-06T18:37:11.966Z,101427.25
2023-05-06T18:39:42.909Z,101430.32
2023-05-06T18:42:10.158Z,101423.97
2023-05-06T18:44:37.686Z,101425.27
2023-05-06T18:47:04.969Z,101429.78
2023-05-06T18:49:31.911Z,101429.20
2023-05-06T18:51:59.063Z,101426.33
2023-05-06T18:54:26.141Z,101425.16
2023-05-06T18:56:53.285Z,101430.15
2023-05-06T18:59:21.634Z,101435.30
2023-05-06T19:01:48.582Z,101431.32
2023-05-06T19:04:15.525Z,101440.61
2023-05-06T19:06:42.483Z,101444.77
2023-05-06T19:09:09.521Z,101444.38
2023-05-06T19:11:36.568Z,101447.56
2023-05-06T19:14:03.724Z,101450.33
2023-05-06T19:16:30.635Z,101448.36
2023-05-06T19:18:57.447Z,101455.91
2023-05-06T19:21:24.737Z,101458.98
2023-05-06T19:23:51.703Z,101455.33
2023-05-06T19:26:18.658Z,101458.24
2023-05-06T19:28:45.702Z,101465.14
2023-05-06T19:31:12.804Z,101474.12
2023-05-06T19:33:40.416Z,101472.71
2023-05-06T19:36:07.386Z,101474.26
2023-05-06T19:38:34.429Z,101479.19
2023-05-06T19:41:01.652Z,101489.39
2023-05-06T19:43:28.594Z,101492.08
2023-05-06T19:45:56.117Z,101491.90
2023-05-06T19:48:24.062Z,101495.09
2023-05-06T19:50:54.068Z,101498.16
2023-05-06T19:53:22.908Z,101496.14
2023-05-06T19:55:52.545Z,101499.27
2023-05-06T19:58:19.825Z,101501.92
2023-05-06T20:00:46.722Z,101506.45
2023-05-06T20:03:14.162Z,101511.21
2023-05-06T20:05:41.635Z,101516.04
2023-05-06T20:08:11.563Z,101516.55
2023-05-06T20:10:38.952Z,101519.95
2023-05-06T20:13:07.276Z,101517.29
2023-05-06T20:15:35.678Z,101515.66
2023-05-06T20:18:02.985Z,101518.70
2023-05-06T20:20:34.568Z,101512.27
2023-05-06T20:23:02.246Z,101510.10
2023-05-06T20:25:29.916Z,101508.18
2023-05-06T20:27:57.980Z,101509.95
2023-05-06T20:30:26.837Z,101512.42
2023-05-06T20:32:54.122Z,101510.73
2023-05-06T20:35:21.171Z,101505.64
2023-05-06T20:37:48.080Z,101504.36
2023-05-06T20:40:15.378Z,101503.45
2023-05-06T20:42:42.337Z,101494.54
2023-05-06T20:45:09.824Z,101494.23
2023-05-06T20:47:37.042Z,101496.77
2023-05-06T20:50:04.580Z,101496.73
2023-05-06T20:52:31.929Z,101499.17
2023-05-06T20:54:59.138Z,101498.02
2023-05-06T20:57:26.087Z,101498.96
2023-05-06T20:59:53.093Z,101498.52
2023-05-06T21:02:20.191Z,101499.61
2023-05-06T21:04:47.264Z,101500.13
2023-05-06T21:07:14.515Z,101500.45
2023-05-06T21:09:42.094Z,101499.11
2023-05-06T21:12:09.018Z,101498.58
2023-05-06T21:14:35.971Z,101497.19
2023-05-06T21:17:03.144Z,101498.46
2023-05-06T21:19:35.586Z,101499.24
2023-05-06T21:22:03.198Z,101494.83
2023-05-06T21:24:31.137Z,101498.70
2023-05-06T21:26:58.278Z,101499.94
2023-05-06T21:29:25.159Z,101502.44
2023-05-06T21:31:53.088Z,101500.25
2023-05-06T21:34:20.084Z,101499.29
2023-05-06T21:36:47.382Z,101503.70
2023-05-06T21:39:14.443Z,101510.29
2023-05-06T21:41:41.403Z,101509.96
2023-05-06T21:44:09.555Z,101509.27
2023-05-06T21:46:38.167Z,101502.68
2023-05-06T21:49:05.312Z,101497.48
2023-05-06T21:51:33.869Z,101496.00
2023-05-06T21:54:01.386Z,101499.67
2023-05-06T21:56:28.798Z,101499.67
2023-05-06T21:58:56.318Z,101494.10
2023-05-06T22:01:28.004Z,101498.19
2023-05-06T22:03:55.191Z,101495.27
2023-05-06T22:06:22.534Z,101500.64
2023-05-06T22:08:49.734Z,101502.71
2023-05-06T22:11:17.354Z,101503.39
2023-05-06T22:13:44.267Z,101503.30
2023-05-06T22:16:11.198Z,101505.17
2023-05-06T22:18:41.590Z,101501.98
2023-05-06T22:21:09.962Z,101498.23
2023-05-06T22:23:36.955Z,101489.99
2023-05-06T22:26:03.992Z,101488.16
2023-05-06T22:28:30.836Z,101482.95
2023-05-06T22:30:57.695Z,101485.23
2023-05-06T22:33:26.463Z,101481.20
2023-05-06T22:35:53.669Z,101478.70
2023-05-06T22:38:20.570Z,101474.50
2023-05-06T22:40:47.575Z,101473.02
2023-05-06T22:43:14.418Z,101471.91
2023-05-06T22:45:41.280Z,101471.80
2023-05-06T22:48:08.220Z,101474.41
2023-05-06T22:50:35.360Z,101469.27
2023-05-06T22:53:10.302Z,101465.19
2023-05-06T22:55:41.066Z,101454.61
2023-05-06T22:58:08.274Z,101451.36
2023-05-06T23:00:35.152Z,101449.36
2023-05-06T23:03:02.119Z,101452.45
2023-05-06T23:05:29.065Z,101453.02
2023-05-06T23:07:56.209Z,101449.61
2023-05-06T23:10:23.126Z,101448.70
2023-05-06T23:12:50.487Z,101444.89
2023-05-06T23:15:17.464Z,101441.33
2023-05-06T23:17:44.467Z,101432.19
2023-05-06T23:20:13.000Z,101430.33
2023-05-06T23:22:39.968Z,101429.21
2023-05-06T23:25:09.215Z,101426.52
2023-05-06T23:27:39.237Z,101424.02
2023-05-06T23:30:08.720Z,101421.57
2023-05-06T23:32:36.079Z,101419.07
2023-05-06T23:35:03.187Z,101415.67
2023-05-06T23:37:30.079Z,101415.61
2023-05-06T23:39:58.878Z,101418.02
2023-05-06T23:42:26.209Z,101418.95
2023-05-06T23:44:53.692Z,101418.02
2023-05-06T23:47:20.655Z,101413.39
2023-05-06T23:49:47.611Z,101409.83
2023-05-06T23:52:14.473Z,101409.62
2023-05-06T23:54:41.396Z,101406.11
2023-05-06T23:57:08.344Z,101400.15
2023-05-06T23:59:35.544Z,101399.04
